createdAt,value
2019-05-17T00:01:16.662Z,95430.72
2019-05-17T00:03:47.103Z,95426.55
2019-05-17T00:06:16.884Z,95418.71
2019-05-17T00:08:47.308Z,95413.45
2019-05-17T00:11:16.801Z,95405.95
2019-05-17T00:13:46.612Z,95395.25
2019-05-17T00:16:17.281Z,95394.79
2019-05-17T00:18:46.382Z,95395.63
2019-05-17T00:21:16.921Z,95385.46
2019-05-17T00:23:46.927Z,95379.41
2019-05-17T00:26:16.438Z,95382.42
2019-05-17T00:28:46.936Z,95387.94
2019-05-17T00:31:17.126Z,95385.25
2019-05-17T00:33:47.136Z,95384.35
2019-05-17T00:36:17.897Z,95381.52
2019-05-17T00:38:50.978Z,95381.28
2019-05-17T00:41:17.655Z,95372.10
2019-05-17T00:43:46.299Z,95379.41
2019-05-17T00:46:17.088Z,95371.41
2019-05-17T00:48:46.607Z,95370.06
2019-05-17T00:51:16.673Z,95365.97
2019-05-17T00:53:46.818Z,95376.48
2019-05-17T00:56:17.101Z,95367.02
2019-05-17T00:58:47.691Z,95373.30
2019-05-17T01:01:16.491Z,95367.63
2019-05-17T01:03:45.023Z,95362.92
2019-05-17T01:06:13.524Z,95368.97
2019-05-17T01:08:42.070Z,95364.55
2019-05-17T01:11:10.560Z,95362.33
2019-05-17T01:13:39.212Z,95364.13
2019-05-17T01:16:07.724Z,95363.84
2019-05-17T01:18:36.326Z,95364.42
2019-05-17T01:21:06.425Z,95361.73
2019-05-17T01:23:36.250Z,95358.23
2019-05-17T01:26:07.324Z,95351.74
2019-05-17T01:28:36.328Z,95364.98
2019-05-17T01:31:06.635Z,95355.69
2019-05-17T01:33:36.771Z,95350.16
2019-05-17T01:36:06.790Z,95359.33
2019-05-17T01:38:37.667Z,95355.82
2019-05-17T01:41:07.028Z,95357.00
2019-05-17T01:43:36.783Z,95356.25
2019-05-17T01:46:06.714Z,95360.12
2019-05-17T01:48:36.584Z,95358.64
2019-05-17T01:51:07.315Z,95353.59
2019-05-17T01:53:36.501Z,95356.25
2019-05-17T01:56:06.332Z,95348.65
2019-05-17T01:58:36.539Z,95358.34
2019-05-17T02:01:07.388Z,95366.99
2019-05-17T02:03:37.550Z,95365.19
2019-05-17T02:06:07.473Z,95360.93
2019-05-17T02:08:37.196Z,95358.89
2019-05-17T02:11:06.865Z,95351.13
2019-05-17T02:13:37.603Z,95348.02
2019-05-17T02:16:07.180Z,95348.25
2019-05-17T02:18:37.256Z,95344.23
2019-05-17T02:21:06.536Z,95344.52
2019-05-17T02:23:37.206Z,95345.23
2019-05-17T02:26:06.626Z,95341.31
2019-05-17T02:28:35.307Z,95341.84
2019-05-17T02:31:04.388Z,95342.13
2019-05-17T02:33:33.478Z,95343.93
2019-05-17T02:36:02.937Z,95341.21
2019-05-17T02:38:33.371Z,95337.52
2019-05-17T02:41:03.223Z,95327.07
2019-05-17T02:43:33.481Z,95326.73
2019-05-17T02:46:03.643Z,95334.77
2019-05-17T02:48:33.722Z,95335.48
2019-05-17T02:51:03.502Z,95336.08
2019-05-17T02:53:33.629Z,95328.13
2019-05-17T02:56:03.262Z,95318.55
2019-05-17T02:58:33.127Z,95323.75
2019-05-17T03:01:03.639Z,95332.55
2019-05-17T03:03:32.497Z,95326.91
2019-05-17T03:06:02.997Z,95334.72
2019-05-17T03:08:34.037Z,95331.14
2019-05-17T03:11:03.276Z,95322.64
2019-05-17T03:13:32.844Z,95321.72
2019-05-17T03:16:03.307Z,95321.30
2019-05-17T03:18:33.318Z,95323.56
2019-05-17T03:21:03.835Z,95322.00
2019-05-17T03:23:32.892Z,95321.93
2019-05-17T03:26:03.531Z,95325.20
2019-05-17T03:28:33.674Z,95321.00
2019-05-17T03:31:08.047Z,95332.71
2019-05-17T03:33:35.985Z,95336.52
2019-05-17T03:36:06.246Z,95338.34
2019-05-17T03:38:34.016Z,95337.03
2019-05-17T03:41:13.445Z,95337.52
2019-05-17T03:43:35.117Z,95340.50
2019-05-17T03:46:03.421Z,95334.02
2019-05-17T03:48:33.293Z,95341.77
2019-05-17T03:51:02.764Z,95338.20
2019-05-17T03:53:33.525Z,95343.34
2019-05-17T03:56:02.998Z,95342.59
2019-05-17T03:58:33.521Z,95344.22
2019-05-17T04:01:04.222Z,95336.22
2019-05-17T04:03:35.588Z,95337.27
2019-05-17T04:06:03.922Z,95340.20
2019-05-17T04:08:34.314Z,95340.66
2019-05-17T04:11:20.634Z,95344.67
2019-05-17T04:13:34.044Z,95336.33
2019-05-17T04:16:07.868Z,95336.92
2019-05-17T04:18:33.676Z,95335.81
2019-05-17T04:21:03.423Z,95340.77
2019-05-17T04:23:33.834Z,95336.56
2019-05-17T04:26:04.207Z,95337.01
2019-05-17T04:28:33.650Z,95338.20
2019-05-17T04:31:02.944Z,95327.80
2019-05-17T04:33:33.693Z,95329.33
2019-05-17T04:36:02.692Z,95340.21
2019-05-17T04:38:33.166Z,95341.25
2019-05-17T04:41:03.339Z,95340.47
2019-05-17T04:43:33.431Z,95337.22
2019-05-17T04:46:03.015Z,95335.84
2019-05-17T04:48:34.937Z,95331.48
2019-05-17T04:51:03.519Z,95344.73
2019-05-17T04:53:32.980Z,95332.05
2019-05-17T04:56:03.158Z,95341.55
2019-05-17T04:58:33.454Z,95338.47
2019-05-17T05:01:04.024Z,95339.04
2019-05-17T05:03:32.819Z,95343.29
2019-05-17T05:06:02.995Z,95342.24
2019-05-17T05:08:33.094Z,95338.97
2019-05-17T05:11:04.114Z,95341.06
2019-05-17T05:13:33.346Z,95339.72
2019-05-17T05:16:03.444Z,95330.98
2019-05-17T05:18:34.574Z,95340.27
2019-05-17T05:21:07.737Z,95341.97
2019-05-17T05:23:36.259Z,95340.44
2019-05-17T05:26:04.905Z,95331.44
2019-05-17T05:28:33.378Z,95334.20
2019-05-17T05:31:02.203Z,95328.14
2019-05-17T05:33:33.496Z,95327.59
2019-05-17T05:36:02.435Z,95328.01
2019-05-17T05:38:32.076Z,95326.14
2019-05-17T05:41:01.876Z,95330.05
2019-05-17T05:43:32.748Z,95333.71
2019-05-17T05:46:02.591Z,95328.80
2019-05-17T05:48:32.690Z,95326.64
2019-05-17T05:51:03.487Z,95324.67
2019-05-17T05:53:32.571Z,95318.52
2019-05-17T05:56:03.236Z,95314.61
2019-05-17T05:58:32.269Z,95322.77
2019-05-17T06:01:02.335Z,95317.45
2019-05-17T06:03:32.079Z,95318.89
2019-05-17T06:06:01.879Z,95312.70
2019-05-17T06:08:32.275Z,95308.15
2019-05-17T06:11:02.157Z,95308.21
2019-05-17T06:13:32.816Z,95301.73
2019-05-17T06:16:02.989Z,95303.42
2019-05-17T06:18:31.908Z,95292.47
2019-05-17T06:21:02.686Z,95278.83
2019-05-17T06:44:26.919Z,95274.95
2019-05-17T06:46:56.705Z,95256.55
2019-05-17T06:49:29.050Z,95259.22
2019-05-17T06:52:03.187Z,95261.52
2019-05-17T06:54:34.557Z,95258.67
2019-05-17T06:57:06.303Z,95251.47
2019-05-17T06:59:36.704Z,95248.88
2019-05-17T07:02:10.428Z,95254.70
2019-05-17T07:04:41.714Z,95253.55
2019-05-17T07:07:32.494Z,95249.37
2019-05-17T07:13:15.527Z,95242.11
2019-05-17T07:27:41.271Z,95209.42
2019-05-17T07:30:10.029Z,95211.30
2019-05-17T07:32:41.630Z,95208.00
2019-05-17T07:35:19.776Z,95207.10
2019-05-17T07:37:53.417Z,95208.89
2019-05-17T07:40:26.051Z,95205.17
2019-05-17T07:43:10.176Z,95199.82
2019-05-17T07:45:30.835Z,95197.42
2019-05-17T07:48:00.153Z,95202.41
2019-05-17T07:50:29.377Z,95202.72
2019-05-17T07:53:00.490Z,95190.87
2019-05-17T07:55:30.290Z,95197.62
2019-05-17T07:58:00.230Z,95191.45
2019-05-17T08:00:30.496Z,95188.47
2019-05-17T08:02:59.949Z,95183.61
2019-05-17T08:05:32.495Z,95177.63
2019-05-17T08:08:01.080Z,95189.55
2019-05-17T08:10:29.859Z,95183.05
2019-05-17T08:12:59.899Z,95182.48
2019-05-17T08:15:30.436Z,95175.17
2019-05-17T08:18:01.645Z,95179.22
2019-05-17T08:20:29.930Z,95172.71
2019-05-17T08:22:59.557Z,95158.88
2019-05-17T08:25:30.365Z,95144.81
2019-05-17T08:27:59.730Z,95157.80
2019-05-17T08:30:30.494Z,95150.45
2019-05-17T08:38:50.296Z,95126.91
2019-05-17T08:41:35.605Z,95141.19
2019-05-17T08:44:34.144Z,95131.05
2019-05-17T08:47:03.276Z,95137.23
2019-05-17T08:49:35.143Z,95130.09
2019-05-17T08:52:03.707Z,95126.54
2019-05-17T08:54:32.259Z,95125.03
2019-05-17T08:57:02.917Z,95128.51
2019-05-17T08:59:33.083Z,95126.12
2019-05-17T09:02:03.063Z,95119.39
2019-05-17T09:04:36.520Z,95119.92
2019-05-17T09:07:12.902Z,95121.72
2019-05-17T09:10:01.505Z,95112.17
2019-05-17T09:12:30.050Z,95099.39
2019-05-17T09:15:00.429Z,95102.06
2019-05-17T09:18:00.299Z,95114.20
2019-05-17T09:20:30.818Z,95107.67
2019-05-17T09:23:00.080Z,95105.06
2019-05-17T09:25:32.163Z,95100.75
2019-05-17T09:28:02.107Z,95100.97
2019-05-17T09:30:33.503Z,95095.73
2019-05-17T09:33:05.671Z,95087.41
2019-05-17T09:35:34.067Z,95081.48
2019-05-17T09:38:02.585Z,95077.31
2019-05-17T09:40:32.979Z,95085.25
2019-05-17T09:43:04.318Z,95093.58
2019-05-17T09:45:32.975Z,95079.41
2019-05-17T09:48:02.361Z,95079.33
2019-05-17T09:50:30.871Z,95087.89
2019-05-17T09:52:59.994Z,95084.37
2019-05-17T09:55:30.099Z,95077.17
2019-05-17T09:58:00.592Z,95067.05
2019-05-17T10:00:29.671Z,95072.66
2019-05-17T10:03:00.017Z,95081.12
2019-05-17T10:05:31.095Z,95076.93
2019-05-17T10:07:59.999Z,95071.31
2019-05-17T10:10:28.861Z,95073.08
2019-05-17T10:12:57.358Z,95075.42
2019-05-17T10:15:26.033Z,95077.52
2019-05-17T10:17:54.540Z,95071.88
2019-05-17T10:20:23.093Z,95068.13
2019-05-17T10:22:51.572Z,95074.43
2019-05-17T10:25:20.227Z,95071.66
2019-05-17T10:27:49.855Z,95071.84
2019-05-17T10:30:20.915Z,95073.50
2019-05-17T10:32:50.562Z,95085.91
2019-05-17T10:35:19.931Z,95080.71
2019-05-17T10:37:50.587Z,95085.94
2019-05-17T10:40:20.851Z,95074.63
2019-05-17T10:42:50.036Z,95077.64
2019-05-17T10:45:19.869Z,95088.09
2019-05-17T10:47:50.296Z,95088.75
2019-05-17T10:50:20.717Z,95085.41
2019-05-17T10:52:49.342Z,95072.66
2019-05-17T10:55:20.012Z,95081.36
2019-05-17T10:57:49.950Z,95088.30
2019-05-17T11:00:19.777Z,95073.56
2019-05-17T11:02:50.367Z,95089.19
2019-05-17T11:05:20.178Z,95089.19
2019-05-17T11:07:50.493Z,95094.99
2019-05-17T11:10:19.552Z,95075.59
2019-05-17T11:12:48.106Z,95083.11
2019-05-17T11:15:16.695Z,95083.80
2019-05-17T11:17:45.170Z,95087.99
2019-05-17T11:20:14.045Z,95091.98
2019-05-17T11:22:42.620Z,95085.95
2019-05-17T11:25:11.477Z,95091.33
2019-05-17T11:27:39.921Z,95088.56
2019-05-17T11:30:08.759Z,95088.59
2019-05-17T11:32:37.227Z,95072.61
2019-05-17T11:35:06.254Z,95079.97
2019-05-17T11:37:34.747Z,95086.98
2019-05-17T11:40:08.008Z,95105.69
2019-05-17T11:42:34.986Z,95095.08
2019-05-17T11:45:03.603Z,95081.61
2019-05-17T11:47:32.071Z,95083.89
2019-05-17T11:50:00.669Z,95082.05
2019-05-17T11:52:29.136Z,95096.26
2019-05-17T11:54:57.618Z,95088.16
2019-05-17T11:57:26.087Z,95083.95
2019-05-17T11:59:54.653Z,95087.55
2019-05-17T12:02:23.180Z,95094.20
2019-05-17T12:04:51.620Z,95078.83
2019-05-17T12:07:20.194Z,95079.72
2019-05-17T12:09:48.687Z,95090.02
2019-05-17T12:12:17.181Z,95073.95
2019-05-17T12:14:45.685Z,95084.42
2019-05-17T12:17:14.315Z,95073.62
2019-05-17T12:19:42.795Z,95075.36
2019-05-17T12:22:11.335Z,95071.91
2019-05-17T12:24:39.897Z,95074.34
2019-05-17T12:27:08.750Z,95078.45
2019-05-17T12:29:37.254Z,95073.61
2019-05-17T12:32:05.852Z,95072.08
2019-05-17T12:34:34.352Z,95070.79
2019-05-17T12:37:02.845Z,95079.20
2019-05-17T12:39:31.431Z,95065.74
2019-05-17T12:42:00.124Z,95070.08
2019-05-17T12:44:28.760Z,95068.80
2019-05-17T12:46:57.226Z,95074.63
2019-05-17T12:49:25.718Z,95072.69
2019-05-17T12:51:54.219Z,95080.92
2019-05-17T12:54:22.710Z,95071.58
2019-05-17T12:56:51.188Z,95081.55
2019-05-17T12:59:19.681Z,95073.80
2019-05-17T13:01:48.206Z,95091.86
2019-05-17T13:04:16.752Z,95070.75
2019-05-17T13:06:45.174Z,95058.50
2019-05-17T13:09:13.698Z,95073.89
2019-05-17T13:11:42.204Z,95076.59
2019-05-17T13:14:10.705Z,95062.28
2019-05-17T13:16:39.255Z,95069.63
2019-05-17T13:19:07.879Z,95070.83
2019-05-17T13:21:36.406Z,95072.68
2019-05-17T13:24:05.040Z,95063.25
2019-05-17T13:26:33.569Z,95063.25
2019-05-17T13:29:02.110Z,95061.16
2019-05-17T13:31:30.584Z,95068.98
2019-05-17T13:33:59.102Z,95058.00
2019-05-17T13:36:27.723Z,95063.17
2019-05-17T13:38:56.210Z,95064.41
2019-05-17T13:41:24.762Z,95057.66
2019-05-17T13:43:53.299Z,95066.75
2019-05-17T13:46:32.842Z,95068.06
2019-05-17T13:48:52.080Z,95086.20
2019-05-17T13:51:20.743Z,95065.48
2019-05-17T13:53:49.205Z,95070.23
2019-05-17T13:56:17.776Z,95070.93
2019-05-17T13:58:46.269Z,95068.93
2019-05-17T14:01:14.728Z,95066.51
2019-05-17T14:03:43.288Z,95062.46
2019-05-17T14:06:11.812Z,95063.38
2019-05-17T14:08:40.343Z,95063.94
2019-05-17T14:11:08.912Z,95063.84
2019-05-17T14:13:37.635Z,95064.81
2019-05-17T14:16:06.281Z,95056.77
2019-05-17T14:18:34.772Z,95045.30
2019-05-17T14:21:03.345Z,95073.41
2019-05-17T14:23:31.911Z,95073.03
2019-05-17T14:26:00.394Z,95080.86
2019-05-17T14:28:28.964Z,95075.70
2019-05-17T14:30:57.473Z,95076.97
2019-05-17T14:33:27.587Z,95072.20
2019-05-17T14:35:56.097Z,95075.03
2019-05-17T14:38:24.635Z,95090.89
2019-05-17T14:41:06.730Z,95072.05
2019-05-17T14:43:23.584Z,95073.62
2019-05-17T14:45:52.055Z,95080.14
2019-05-17T14:48:20.558Z,95080.14
2019-05-17T14:50:49.156Z,95081.84
2019-05-17T14:53:17.663Z,95070.74
2019-05-17T14:55:46.150Z,95075.49
2019-05-17T14:58:17.060Z,95078.97
2019-05-17T15:00:48.079Z,95074.63
2019-05-17T15:03:16.586Z,95079.80
2019-05-17T15:05:45.102Z,95070.02
2019-05-17T15:08:21.777Z,95069.98
2019-05-17T15:10:50.399Z,95070.31
2019-05-17T15:24:56.828Z,95067.75
2019-05-17T15:27:42.712Z,95064.20
2019-05-17T15:30:11.283Z,95065.24
2019-05-17T15:32:41.189Z,95068.94
2019-05-17T15:35:10.000Z,95065.88
2019-05-17T15:37:57.753Z,95076.40
2019-05-17T15:40:26.323Z,95071.10
2019-05-17T15:42:54.841Z,95070.29
2019-05-17T15:45:23.334Z,95073.39
2019-05-17T15:47:51.850Z,95077.61
2019-05-17T15:50:20.517Z,95076.11
2019-05-17T15:52:49.115Z,95071.55
2019-05-17T15:55:17.698Z,95073.05
2019-05-17T15:57:46.156Z,95069.97
2019-05-17T16:00:15.828Z,95073.66
2019-05-17T16:02:44.899Z,95075.63
2019-05-17T16:05:13.743Z,95063.40
2019-05-17T16:07:42.242Z,95067.88
2019-05-17T16:10:12.544Z,95068.65
2019-05-17T16:12:41.032Z,95065.81
2019-05-17T16:15:10.268Z,95064.17
2019-05-17T16:17:38.837Z,95070.67
2019-05-17T16:20:08.067Z,95071.53
2019-05-17T16:22:36.638Z,95066.31
2019-05-17T16:25:06.574Z,95065.81
2019-05-17T16:27:35.069Z,95057.92
2019-05-17T16:30:04.841Z,95063.59
2019-05-17T16:32:33.336Z,95063.45
2019-05-17T16:35:01.811Z,95062.83
2019-05-17T16:37:30.368Z,95057.88
2019-05-17T16:39:58.878Z,95077.08
2019-05-17T16:42:27.357Z,95069.78
2019-05-17T16:44:55.876Z,95064.83
2019-05-17T16:47:24.387Z,95061.42
2019-05-17T16:49:52.902Z,95062.03
2019-05-17T16:52:21.769Z,95063.91
2019-05-17T16:54:50.310Z,95062.40
2019-05-17T16:57:18.873Z,95058.44
2019-05-17T16:59:47.840Z,95069.48
2019-05-17T17:02:16.391Z,95066.39
2019-05-17T17:04:44.882Z,95065.72
2019-05-17T17:07:13.481Z,95063.34
2019-05-17T17:09:41.993Z,95060.11
2019-05-17T17:12:10.632Z,95060.16
2019-05-17T17:14:41.760Z,95061.97
2019-05-17T17:17:42.224Z,95063.25
2019-05-17T17:26:03.901Z,95065.61
2019-05-17T17:31:20.149Z,95076.67
2019-05-17T17:33:53.001Z,95072.88
2019-05-17T17:36:46.014Z,95068.33
2019-05-17T17:39:15.576Z,95062.14
2019-05-17T17:42:03.342Z,95064.59
2019-05-17T17:55:15.359Z,95067.55
2019-05-17T18:00:48.141Z,95060.67
2019-05-17T18:03:20.056Z,95073.44
2019-05-17T18:05:49.023Z,95061.84
2019-05-17T18:08:25.725Z,95055.86
2019-05-17T18:10:54.469Z,95066.66
2019-05-17T18:13:23.260Z,95063.42
2019-05-17T18:15:53.392Z,95065.89
2019-05-17T18:18:21.915Z,95062.73
2019-05-17T18:20:50.547Z,95058.08
2019-05-17T18:23:26.214Z,95070.11
2019-05-17T18:25:54.802Z,95071.40
2019-05-17T18:31:24.534Z,95066.66
2019-05-17T18:33:58.725Z,95073.52
2019-05-17T18:36:31.125Z,95069.84
2019-05-17T18:39:00.884Z,95068.48
2019-05-17T18:41:29.624Z,95065.41
2019-05-17T18:44:01.213Z,95068.44
2019-05-17T18:46:36.339Z,95073.86
2019-05-17T18:49:05.105Z,95074.19
2019-05-17T18:51:33.892Z,95063.22
2019-05-17T18:54:03.311Z,95074.20
2019-05-17T18:59:50.335Z,95072.23
2019-05-17T19:02:18.947Z,95086.56
2019-05-17T19:04:47.577Z,95080.64
2019-05-17T19:07:16.208Z,95075.80
2019-05-17T19:09:48.574Z,95081.81
2019-05-17T19:12:19.976Z,95083.77
2019-05-17T19:14:48.482Z,95092.34
2019-05-17T19:17:16.960Z,95090.02
2019-05-17T19:19:45.469Z,95093.84
2019-05-17T19:22:13.973Z,95096.05
2019-05-17T19:24:42.441Z,95097.12
2019-05-17T19:27:10.946Z,95102.77
2019-05-17T19:29:39.498Z,95108.22
2019-05-17T19:32:08.076Z,95108.48
2019-05-17T19:34:36.565Z,95113.73
2019-05-17T19:37:05.125Z,95115.81
2019-05-17T19:39:33.630Z,95103.91
2019-05-17T19:42:02.123Z,95108.03
2019-05-17T19:44:30.600Z,95115.14
2019-05-17T19:46:59.082Z,95124.71
2019-05-17T19:49:27.583Z,95115.44
2019-05-17T19:51:56.103Z,95120.37
2019-05-17T19:54:24.598Z,95133.70
2019-05-17T19:56:53.067Z,95137.50
2019-05-17T19:59:21.579Z,95139.34
2019-05-17T20:01:50.078Z,95141.13
2019-05-17T20:04:18.586Z,95139.51
2019-05-17T20:06:47.074Z,95153.84
2019-05-17T20:09:15.563Z,95153.95
2019-05-17T20:11:44.059Z,95146.03
2019-05-17T20:14:12.609Z,95150.30
2019-05-17T20:16:41.119Z,95141.94
2019-05-17T20:19:09.679Z,95142.40
2019-05-17T20:21:38.190Z,95142.73
2019-05-17T20:24:06.805Z,95144.68
2019-05-17T20:26:35.317Z,95146.20
2019-05-17T20:29:03.788Z,95169.69
2019-05-17T20:31:32.307Z,95171.39
2019-05-17T20:34:00.796Z,95168.40
2019-05-17T20:36:29.273Z,95169.50
2019-05-17T20:38:57.782Z,95169.97
2019-05-17T20:41:26.346Z,95176.91
2019-05-17T20:43:54.834Z,95172.84
2019-05-17T20:46:23.414Z,95173.72
2019-05-17T20:48:51.904Z,95185.13
2019-05-17T20:51:20.425Z,95184.05
2019-05-17T20:53:48.945Z,95183.02
2019-05-17T20:56:31.997Z,95186.55
2019-05-17T20:58:47.627Z,95183.30
2019-05-17T21:01:16.133Z,95190.38
2019-05-17T21:03:44.606Z,95193.95
2019-05-17T21:06:13.104Z,95196.72
2019-05-17T21:08:46.035Z,95202.97
2019-05-17T21:11:13.366Z,95203.78
2019-05-17T21:13:41.844Z,95199.17
2019-05-17T21:16:10.636Z,95200.07
2019-05-17T21:18:39.109Z,95209.31
2019-05-17T21:21:07.620Z,95212.56
2019-05-17T21:23:36.214Z,95214.50
2019-05-17T21:26:05.187Z,95205.01
2019-05-17T21:28:33.692Z,95208.80
2019-05-17T21:31:02.345Z,95211.55
2019-05-17T21:33:30.883Z,95207.25
2019-05-17T21:35:59.366Z,95205.08
2019-05-17T21:38:28.059Z,95200.47
2019-05-17T21:40:56.661Z,95204.88
2019-05-17T21:43:25.200Z,95204.60
2019-05-17T21:46:03.573Z,95208.40
2019-05-17T21:48:25.573Z,95211.68
2019-05-17T21:50:54.147Z,95216.84
2019-05-17T21:53:22.696Z,95211.66
2019-05-17T21:55:51.179Z,95213.80
2019-05-17T21:58:20.405Z,95209.99
2019-05-17T22:00:55.684Z,95215.96
2019-05-17T22:03:24.313Z,95219.22
2019-05-17T22:05:52.858Z,95220.27
2019-05-17T22:08:21.369Z,95228.68
2019-05-17T22:10:50.449Z,95222.20
2019-05-17T22:13:18.954Z,95220.33
2019-05-17T22:15:47.549Z,95220.63
2019-05-17T22:18:18.648Z,95217.13
2019-05-17T22:20:46.342Z,95214.96
2019-05-17T22:23:14.857Z,95219.56
2019-05-17T22:25:43.456Z,95217.39
2019-05-17T22:28:11.995Z,95211.70
2019-05-17T22:30:40.586Z,95218.75
2019-05-17T22:33:09.119Z,95216.31
2019-05-17T22:35:37.706Z,95219.84
2019-05-17T22:38:06.461Z,95216.56
2019-05-17T22:40:35.041Z,95218.73
2019-05-17T22:43:03.616Z,95215.72
2019-05-17T22:45:32.257Z,95217.08
2019-05-17T22:48:00.764Z,95213.00
2019-05-17T22:50:29.361Z,95212.20
2019-05-17T22:52:58.234Z,95210.86
2019-05-17T22:55:26.756Z,95210.59
2019-05-17T22:57:55.509Z,95209.00
2019-05-17T23:00:24.244Z,95206.83
2019-05-17T23:02:52.793Z,95201.41
2019-05-17T23:05:25.959Z,95204.66
2019-05-17T23:07:51.563Z,95205.49
2019-05-17T23:10:20.137Z,95201.72
2019-05-17T23:12:48.628Z,95204.69
2019-05-17T23:15:17.320Z,95202.81
2019-05-17T23:17:45.831Z,95196.84
2019-05-17T23:20:14.896Z,95188.45
2019-05-17T23:22:43.449Z,95199.01
2019-05-17T23:25:12.116Z,95198.19
2019-05-17T23:27:40.616Z,95191.69
2019-05-17T23:30:09.748Z,95197.92
2019-05-17T23:32:38.286Z,95192.23
2019-05-17T23:35:07.336Z,95199.01
2019-05-17T23:37:36.028Z,95196.83
2019-05-17T23:40:06.400Z,95195.76
2019-05-17T23:42:34.907Z,95199.02
2019-05-17T23:45:04.395Z,95190.36
2019-05-17T23:47:32.920Z,95193.34
2019-05-17T23:50:01.459Z,95191.72
2019-05-17T23:52:29.950Z,95197.41
2019-05-17T23:54:58.448Z,95198.77
2019-05-17T23:57:26.992Z,95197.95
2019-05-17T23:59:55.543Z,95197.95
